Central Oregon RPC :: LAKEVIEW D1

liberation: 2020-08-22  07:00     latitude: 42.192405     longitude: -120.356890 59 birds
# LOFT PRING MILES ARRIVAL SPEED ToWin
1 TOPIGEONUSA AU20-CORP-4862 153.345 2020-08-22 10:32:18.464 1271.208 00:00:00
2 TOPIGEONUSA AU20-CORP-4377 153.345 2020-08-22 10:32:19.452 1271.110 00:00:01
3 TOPIGEONUSA AU20-CORP-4383 153.345 2020-08-22 10:32:20.013 1271.054 00:00:02
4 TOPIGEONUSA AU20-CORP-4849 153.345 2020-08-22 10:32:33.667 1269.693 00:00:15
5 TOPIGEONUSA AU20-CORP-4378 153.345 2020-08-22 10:32:33.981 1269.662 00:00:16
6 TOPIGEONUSA AU20-CORP-4830 153.345 2020-08-22 10:38:47.926 1233.496 00:06:29
7 TOPIGEONUSA AU20-CORP-4392 153.345 2020-08-22 10:38:49.085 1233.387 00:06:31
8 ROCKY TOP AU20-CORP-4414 146.242 2020-08-22 10:32:29.006 1211.320 00:10:01
9 ROCKY TOP AU20-ARPU-28128 146.242 2020-08-22 10:32:40.003 1210.276 00:10:12
10 TOPIGEONUSA AU20-CORP-4861 153.345 2020-08-22 10:45:54.329 1194.692 00:13:36
11 TOPIGEONUSA AU20-CORP-4396 153.345 2020-08-22 10:46:00.710 1194.129 00:13:42
12 RUETER FAMILY LOFT AU20-CORP-4621 180.003 2020-08-22 11:26:00.961 1190.926 00:16:48
13 ROCKY TOP AU20-CORP-4445 146.242 2020-08-22 10:50:08.160 1118.406 00:27:40
14 AMERICAN LOFT AU20-CORP-5554 150.054 2020-08-22 10:57:36.179 1111.497 00:29:51
15 AMERICAN LOFT AU20-CORP-5417 150.054 2020-08-22 10:57:37.901 1111.363 00:29:53
16 AMERICAN LOFT AU20-CORP-5579 150.054 2020-08-22 10:57:38.576 1111.311 00:29:53
17 AMERICAN LOFT AU20-CORP-5420 150.054 2020-08-22 10:57:42.805 1110.981 00:29:58
18 RUETER FAMILY LOFT AU20-CORP-4515 180.003 2020-08-22 11:45:37.607 1109.158 00:36:25
19 TOPIGEONUSA AU20-CORP-4391 153.345 2020-08-22 11:08:50.130 1084.602 00:36:32
20 JACKSONS LOFT AU20-CORP-4660 123.948 2020-08-22 10:23:49.715 1070.252 00:32:13
21 AMERICAN LOFT AU20-CORP-5445 150.054 2020-08-22 11:06:56.489 1069.464 00:39:11
22 AMERICAN LOFT AU20-CORP-5575 150.054 2020-08-22 11:07:00.546 1069.172 00:39:15
23 AMERICAN LOFT AU20-CORP-5497 150.054 2020-08-22 11:07:00.930 1069.144 00:39:16
24 JACKSONS LOFT AU20-CORP-5552 123.948 2020-08-22 10:26:09.225 1058.181 00:34:33
25 JACKSONS LOFT AU20-CORP-5201 123.948 2020-08-22 10:26:14.887 1057.696 00:34:38
26 JACKSONS LOFT AU20-CORP-4644 123.948 2020-08-22 10:26:19.947 1057.264 00:34:44
27 AMERICAN LOFT AU20-CORP-5577 150.054 2020-08-22 11:09:47.505 1057.261 00:42:02
28 JACKSONS LOFT AU20-CORP-5525 123.948 2020-08-22 10:26:24.272 1056.895 00:34:48
29 JACKSONS LOFT AU20-CORP-5538 123.948 2020-08-22 10:26:30.323 1056.379 00:34:54
30 JACKSONS LOFT AU20-CORP-5523 123.948 2020-08-22 10:26:34.742 1056.002 00:34:58
31 JACKSONS LOFT AU20-CORP-4665 123.948 2020-08-22 10:26:38.801 1055.656 00:35:02
32 JACKSONS LOFT AU20-CORP-5472 123.948 2020-08-22 10:26:43.937 1055.219 00:35:08
33 HENDRICKSON FAMILY LOFT AU20-CORP-5267 150.133 2020-08-22 11:10:28.864 1054.904 00:42:37
34 JACKSONS LOFT AU20-CORP-5528 123.948 2020-08-22 10:26:48.034 1054.871 00:35:12
35 HENDRICKSON FAMILY LOFT AU20-CORP-5292 150.133 2020-08-22 11:10:29.825 1054.837 00:42:38
36 JACKSONS LOFT AU20-CORP-4647 123.948 2020-08-22 10:26:52.374 1054.502 00:35:16
37 JACKSONS LOFT AU20-CORP-5529 123.948 2020-08-22 10:26:56.016 1054.193 00:35:20
38 JACKSONS LOFT AU20-CORP-4667 123.948 2020-08-22 10:26:59.546 1053.893 00:35:23
39 JACKSONS LOFT AU20-CORP-5524 123.948 2020-08-22 10:27:04.700 1053.456 00:35:28
40 JACKSONS LOFT AU20-CORP-5534 123.948 2020-08-22 10:27:10.105 1052.998 00:35:34
41 AMERICAN LOFT AU20-CORP-5573 150.054 2020-08-22 11:10:51.911 1052.737 00:43:07
42 AMERICAN LOFT AU20-CORP-5422 150.054 2020-08-22 11:25:48.011 993.585 00:58:03
43 TOPIGEONUSA AU20-CORP-4860 153.345 2020-08-22 11:43:49.298 950.905 01:11:31
44 RUETER FAMILY LOFT AU20-CORP-4558 180.003 2020-08-22 13:06:00.770 865.558 01:56:48
45 ROCKY TOP AU20-CORP-4477 146.242 2020-08-22 14:48:18.897 549.599 04:25:51
46 RUETER FAMILY LOFT AU20-CORP-4658 180.003 2020-08-22 18:42:33.079 450.935 07:33:20
47 AMERICAN LOFT AU20-CORP-5556 150.054 2020-08-22 18:53:35.255 370.095 08:25:50
48 RUETER FAMILY LOFT AU20-CORP-4526 180.003 2020-08-23 07:02:51.492 361.805 10:26:25
49 RUETER FAMILY LOFT AU20-CORP-4507 180.003 2020-08-23 09:33:34.449 308.675 12:57:07
50 TOPIGEONUSA AU20-CORP-4875 153.345 2020-08-23 07:04:30.244 307.644 11:04:58
51 AMERICAN LOFT AU20-CORP-5560 150.054 2020-08-23 07:31:15.165 292.134 11:36:16
52 AMERICAN LOFT AU20-CORP-5400 150.054 2020-08-23 09:37:13.828 256.404 13:42:15
AMERICAN LOFT AU20-CORP-5476 0 0000-00-00 00:00:00.000 0.000 00:00:00
AMERICAN LOFT AU20-CORP-5565 0 0000-00-00 00:00:00.000 0.000 00:00:00
HENDRICKSON FAMILY LOFT AU20-CORP-5255 0 0000-00-00 00:00:00.000 0.000 00:00:00
ROCKY TOP AU20-TAC-2774 0 0000-00-00 00:00:00.000 0.000 00:00:00
RUETER FAMILY LOFT AU20-CORP-4547 0 0000-00-00 00:00:00.000 0.000 00:00:00
RUETER FAMILY LOFT AU20-CORP-4643 0 0000-00-00 00:00:00.000 0.000 00:00:00
RUETER FAMILY LOFT AU20-CORP-4648 0 0000-00-00 00:00:00.000 0.000 00:00:00